EGNS/IOM METAR and TAF weather

Enter ICAO airport designator
Station Type Date Time Source
EGNS METAR 2020/08/14 16:50 UTC NOAA

EGNS 141650Z 10005KT CAVOK 21/16 Q1015 NOSIG


Station Type Date Time Source
EGNS Decoded METAR 2020/08/14 16:50 UTC NOAA

Isle Of Man / Ronaldsway Airport, United Kingdom (EGNS) 54-05N 004-38W 0M
Aug 14, 2020 - 12:50 PM EDT / 2020.08.14 1650 UTC
Wind: from the E (100 degrees) at 6 MPH (5 KT):0
Visibility: greater than 7 mile(s):0
Temperature: 69 F (21 C)
Dew Point: 60 F (16 C)
Relative Humidity: 73%
Pressure (altimeter): 29.97 in. Hg (1015 hPa)
ob: EGNS 141650Z 10005KT CAVOK 21/16 Q1015 NOSIG
cycle: 17

Station Type Date Time Source
EGNS TAF 2019/01/16 05:00 UTC NOAA

TAF EGNS 160500 Z 1606/1615 28020KT 9999 FEW010 BKN025
TEMPO 1606/1609 6000 RA BKN010 PROB30
TEMPO 1613/1615 7000 -SHRA

Example: see airport list